createdAt,value
2019-06-07T00:00:29.676Z,13.50
2019-06-07T00:02:43.827Z,14.78
2019-06-07T00:05:17.188Z,13.95
2019-06-07T00:07:43.018Z,14.10
2019-06-07T00:10:31.242Z,13.32
2019-06-07T00:12:42.628Z,15.50
2019-06-07T00:15:18.136Z,14.50
2019-06-07T00:17:42.007Z,12.23
2019-06-07T00:20:15.586Z,11.10
2019-06-07T00:22:41.985Z,9.73
2019-06-07T00:25:15.111Z,8.98
2019-06-07T00:27:41.343Z,10.68
2019-06-07T00:32:41.683Z,10.68
2019-06-07T00:35:11.936Z,11.03
2019-06-07T00:37:41.337Z,11.10
2019-06-07T00:40:16.167Z,10.72
2019-06-07T00:42:40.953Z,14.47
2019-06-07T00:45:11.187Z,14.75
2019-06-07T00:47:40.661Z,24.98
2019-06-07T00:50:11.139Z,17.12
2019-06-07T00:53:13.930Z,17.02
2019-06-07T00:55:15.233Z,31.40
2019-06-07T00:57:42.793Z,43.85
2019-06-07T01:00:14.777Z,44.10
2019-06-07T01:02:43.045Z,43.02
2019-06-07T01:05:15.935Z,40.85
2019-06-07T01:07:42.424Z,26.57
2019-06-07T01:10:21.160Z,20.60
2019-06-07T01:12:46.362Z,25.60
2019-06-07T01:15:19.517Z,21.05
2019-06-07T01:18:32.623Z,22.25
2019-06-07T01:20:21.178Z,18.25
2019-06-07T01:22:48.288Z,20.45
2019-06-07T01:25:18.243Z,14.40
2019-06-07T01:27:47.457Z,12.13
2019-06-07T01:30:24.162Z,10.70
2019-06-07T01:32:50.959Z,10.30
2019-06-07T01:35:23.458Z,12.30
2019-06-07T01:37:52.403Z,12.50
2019-06-07T01:40:27.797Z,12.37
2019-06-07T01:42:55.000Z,10.48
2019-06-07T01:45:24.342Z,12.60
2019-06-07T01:47:53.834Z,10.15
2019-06-07T01:50:24.810Z,10.85
2019-06-07T01:52:52.800Z,10.40
2019-06-07T01:55:23.618Z,9.18
2019-06-07T01:57:51.691Z,8.58
2019-06-07T02:00:22.095Z,10.45
2019-06-07T02:02:50.928Z,13.30
2019-06-07T02:05:21.565Z,12.23
2019-06-07T02:07:50.131Z,14.40
2019-06-07T02:10:25.741Z,13.50
2019-06-07T02:12:52.310Z,9.93
2019-06-07T02:15:23.099Z,9.70
2019-06-07T02:17:51.398Z,9.70
2019-06-07T02:20:22.985Z,9.38
2019-06-07T02:22:51.178Z,9.70
2019-06-07T02:25:43.803Z,8.80
2019-06-07T02:27:50.080Z,9.48
2019-06-07T02:32:50.893Z,9.55
2019-06-07T02:35:22.557Z,8.53
2019-06-07T02:37:50.163Z,9.13
2019-06-07T02:40:19.094Z,9.50
2019-06-07T02:42:47.724Z,9.30
2019-06-07T02:45:17.027Z,9.18
2019-06-07T02:47:46.856Z,8.88
2019-06-07T02:50:16.596Z,8.40
2019-06-07T02:52:45.202Z,9.20
2019-06-07T02:55:14.223Z,9.53
2019-06-07T02:57:43.343Z,9.25
2019-06-07T03:00:41.382Z,8.53
2019-06-07T03:02:47.847Z,9.53
2019-06-07T03:05:16.465Z,10.48
2019-06-07T03:07:47.213Z,9.38
2019-06-07T03:10:16.158Z,9.85
2019-06-07T03:12:47.732Z,10.05
2019-06-07T03:15:33.025Z,9.48
2019-06-07T03:18:06.807Z,8.73
2019-06-07T03:20:37.206Z,10.45
2019-06-07T03:23:06.937Z,11.15
2019-06-07T03:25:39.169Z,9.90
2019-06-07T03:28:07.995Z,9.98
2019-06-07T03:30:48.027Z,9.50
2019-06-07T03:33:06.969Z,10.20
2019-06-07T03:35:37.469Z,10.60
2019-06-07T03:38:05.937Z,9.85
2019-06-07T03:40:39.575Z,10.68
2019-06-07T03:43:04.754Z,10.13
2019-06-07T03:45:36.026Z,10.43
2019-06-07T03:48:03.604Z,9.88
2019-06-07T03:50:36.098Z,10.43
2019-06-07T03:53:02.792Z,11.88
2019-06-07T03:55:37.753Z,11.85
2019-06-07T03:58:31.545Z,10.80
2019-06-07T04:00:36.661Z,10.32
2019-06-07T04:03:03.775Z,10.98
2019-06-07T04:05:38.145Z,11.15
2019-06-07T04:08:02.694Z,9.90
2019-06-07T04:10:52.029Z,13.68
2019-06-07T04:13:01.464Z,11.88
2019-06-07T04:15:30.840Z,12.33
2019-06-07T04:18:02.202Z,8.80
2019-06-07T04:20:33.820Z,9.20
2019-06-07T04:23:00.665Z,12.55
2019-06-07T04:25:33.894Z,13.95
2019-06-07T04:27:59.600Z,13.90
2019-06-07T04:30:42.409Z,13.50
2019-06-07T04:33:12.482Z,13.22
2019-06-07T04:35:43.147Z,10.75
2019-06-07T04:38:14.102Z,12.05
2019-06-07T04:40:47.056Z,12.35
2019-06-07T04:43:16.013Z,12.25
2019-06-07T04:45:50.670Z,12.23
2019-06-07T04:48:14.843Z,12.28
2019-06-07T04:50:44.062Z,12.18
2019-06-07T04:53:12.886Z,12.68
2019-06-07T04:55:42.865Z,13.32
2019-06-07T04:58:11.474Z,12.90
2019-06-07T05:00:55.625Z,12.50
2019-06-07T05:03:12.012Z,13.25
2019-06-07T05:05:43.516Z,12.58
2019-06-07T05:08:26.988Z,13.43
2019-06-07T05:10:43.809Z,15.85
2019-06-07T05:13:11.522Z,15.45
2019-06-07T05:15:42.207Z,12.85
2019-06-07T05:18:10.411Z,12.85
2019-06-07T05:20:41.532Z,15.75
2019-06-07T05:23:09.383Z,12.60
2019-06-07T05:25:39.288Z,13.83
2019-06-07T05:28:08.937Z,14.98
2019-06-07T05:33:12.232Z,14.98
2019-06-07T05:35:43.316Z,15.28
2019-06-07T05:38:11.382Z,14.33
2019-06-07T05:40:46.115Z,14.03
2019-06-07T05:43:24.078Z,14.05
2019-06-07T05:45:52.683Z,13.70
2019-06-07T05:48:21.417Z,11.50
2019-06-07T05:50:56.787Z,12.63
2019-06-07T05:53:20.471Z,12.70
2019-06-07T05:55:49.037Z,12.33
2019-06-07T05:58:17.659Z,12.23
2019-06-07T06:00:47.906Z,12.03
2019-06-07T06:03:16.952Z,12.10
2019-06-07T06:05:53.849Z,11.55
2019-06-07T06:08:15.950Z,11.40
2019-06-07T06:10:48.320Z,11.75
2019-06-07T06:13:14.976Z,12.70
2019-06-07T06:15:55.946Z,12.70
2019-06-07T06:18:14.009Z,11.15
2019-06-07T06:21:08.538Z,9.18
2019-06-07T06:23:13.066Z,9.10
2019-06-07T06:25:50.163Z,11.30
2019-06-07T06:28:13.194Z,11.25
2019-06-07T06:30:46.027Z,11.12
2019-06-07T06:33:30.580Z,10.20
2019-06-07T06:35:48.434Z,11.38
2019-06-07T06:38:13.828Z,11.22
2019-06-07T06:40:46.539Z,11.43
2019-06-07T06:43:12.857Z,11.55
2019-06-07T06:45:42.825Z,13.38
2019-06-07T06:48:11.865Z,12.75
2019-06-07T06:50:41.109Z,15.38
2019-06-07T06:53:09.862Z,11.68
2019-06-07T06:55:39.093Z,13.95
2019-06-07T06:58:07.872Z,14.35
2019-06-07T07:01:04.349Z,13.20
2019-06-07T07:03:56.063Z,11.08
2019-06-07T07:05:54.532Z,10.55
2019-06-07T07:08:22.695Z,12.80
2019-06-07T07:10:53.295Z,12.55
2019-06-07T07:13:22.954Z,14.85
2019-06-07T07:15:57.630Z,11.78
2019-06-07T07:18:21.952Z,11.90
2019-06-07T07:20:56.647Z,11.88
2019-06-07T07:23:21.100Z,13.68
2019-06-07T07:25:55.530Z,13.08
2019-06-07T07:28:20.098Z,12.18
2019-06-07T07:30:55.272Z,12.43
2019-06-07T07:33:23.213Z,12.15
2019-06-07T07:36:15.280Z,12.30
2019-06-07T07:38:24.135Z,13.60
2019-06-07T07:41:04.845Z,16.75
2019-06-07T07:43:24.542Z,13.58
2019-06-07T07:45:59.367Z,11.85
2019-06-07T07:48:23.509Z,11.95
2019-06-07T07:50:56.951Z,14.28
2019-06-07T07:53:22.424Z,12.03
2019-06-07T07:55:54.969Z,10.88
2019-06-07T07:58:21.608Z,13.30
2019-06-07T08:00:59.069Z,13.30
2019-06-07T08:03:20.834Z,12.75
2019-06-07T08:05:52.044Z,12.18
2019-06-07T08:08:20.561Z,13.28
2019-06-07T08:10:52.605Z,13.10
2019-06-07T08:13:25.710Z,13.58
2019-06-07T08:15:54.432Z,11.85
2019-06-07T08:18:20.968Z,11.43
2019-06-07T08:21:08.603Z,14.05
2019-06-07T08:23:20.619Z,12.63
2019-06-07T08:25:49.290Z,10.85
2019-06-07T08:28:17.953Z,12.85
2019-06-07T08:30:53.225Z,12.53
2019-06-07T08:33:27.258Z,13.88
2019-06-07T08:38:29.280Z,13.15
2019-06-07T08:40:56.780Z,14.68
2019-06-07T08:43:23.274Z,12.90
2019-06-07T08:45:58.460Z,14.10
2019-06-07T08:48:28.089Z,13.98
2019-06-07T08:50:56.972Z,12.95
2019-06-07T08:53:22.985Z,15.28
2019-06-07T08:55:58.213Z,16.15
2019-06-07T08:58:21.882Z,14.65
2019-06-07T09:00:51.657Z,18.07
2019-06-07T09:03:20.892Z,17.60
2019-06-07T09:05:49.517Z,15.38
2019-06-07T09:08:29.959Z,15.85
2019-06-07T09:10:48.393Z,15.08
2019-06-07T09:13:16.948Z,17.12
2019-06-07T09:15:45.501Z,15.78
2019-06-07T09:20:49.523Z,15.43
2019-06-07T09:23:18.620Z,14.15
2019-06-07T09:25:57.614Z,14.65
2019-06-07T09:28:20.391Z,15.13
2019-06-07T09:30:49.419Z,14.80
2019-06-07T09:33:18.054Z,14.50
2019-06-07T09:35:46.710Z,14.45
2019-06-07T09:38:25.025Z,14.15
2019-06-07T09:40:46.138Z,15.20
2019-06-07T09:45:45.109Z,18.25
2019-06-07T09:48:23.908Z,17.77
2019-06-07T09:50:44.053Z,14.98
2019-06-07T09:53:21.579Z,17.80
2019-06-07T09:55:43.126Z,15.35
2019-06-07T09:58:50.535Z,14.73
2019-06-07T10:00:42.974Z,17.10
2019-06-07T10:03:20.083Z,17.82
2019-06-07T10:05:42.240Z,16.37
2019-06-07T10:08:40.991Z,16.23
2019-06-07T10:10:42.978Z,15.50
2019-06-07T10:13:11.445Z,15.95
2019-06-07T10:15:40.264Z,15.55
2019-06-07T10:18:09.307Z,14.18
2019-06-07T10:20:38.408Z,16.42
2019-06-07T10:23:07.985Z,16.30
2019-06-07T10:25:36.759Z,17.65
2019-06-07T10:28:06.162Z,14.80
2019-06-07T10:30:35.123Z,15.20
2019-06-07T10:33:04.840Z,15.20
2019-06-07T10:35:34.349Z,16.52
2019-06-07T10:38:02.830Z,16.25
2019-06-07T10:40:31.472Z,17.00
2019-06-07T10:43:01.174Z,17.50
2019-06-07T10:45:29.946Z,17.32
2019-06-07T10:47:58.665Z,17.55
2019-06-07T10:50:28.227Z,17.75
2019-06-07T10:52:57.027Z,16.77
2019-06-07T10:55:25.628Z,16.30
2019-06-07T10:57:54.290Z,17.15
2019-06-07T11:00:24.945Z,16.80
2019-06-07T11:02:55.278Z,17.48
2019-06-07T11:05:24.058Z,17.17
2019-06-07T11:07:52.683Z,16.15
2019-06-07T11:10:21.346Z,17.65
2019-06-07T11:12:49.960Z,18.10
2019-06-07T11:15:20.229Z,19.62
2019-06-07T11:17:48.817Z,16.17
2019-06-07T11:20:18.767Z,18.55
2019-06-07T11:22:47.583Z,18.12
2019-06-07T11:25:16.942Z,18.27
2019-06-07T11:27:45.551Z,19.52
2019-06-07T11:30:17.141Z,18.05
2019-06-07T11:32:45.685Z,17.25
2019-06-07T11:35:16.045Z,16.95
2019-06-07T11:37:46.240Z,18.42
2019-06-07T11:40:31.587Z,16.85
2019-06-07T11:42:45.494Z,16.45
2019-06-07T11:45:15.475Z,17.07
2019-06-07T11:47:45.008Z,20.75
2019-06-07T11:50:15.789Z,20.97
2019-06-07T11:52:46.477Z,20.17
2019-06-07T11:55:15.928Z,20.17
2019-06-07T11:57:44.648Z,21.05
2019-06-07T12:00:16.429Z,20.10
2019-06-07T12:02:46.192Z,20.55
2019-06-07T12:05:18.428Z,20.75
2019-06-07T12:07:46.350Z,21.68
2019-06-07T12:10:19.156Z,19.40
2019-06-07T12:12:46.301Z,18.00
2019-06-07T12:15:17.322Z,20.95
2019-06-07T12:17:46.314Z,21.52
2019-06-07T12:20:17.312Z,19.67
2019-06-07T12:22:46.071Z,17.80
2019-06-07T12:25:20.729Z,18.40
2019-06-07T12:27:45.079Z,18.30
2019-06-07T12:30:22.497Z,18.07
2019-06-07T12:32:44.668Z,17.60
2019-06-07T12:35:13.691Z,15.83
2019-06-07T12:37:44.674Z,17.90
2019-06-07T12:40:22.399Z,15.65
2019-06-07T12:42:43.321Z,15.75
2019-06-07T12:45:32.381Z,15.20
2019-06-07T12:47:45.542Z,13.43
2019-06-07T12:50:15.394Z,16.77
2019-06-07T12:52:44.100Z,13.65
2019-06-07T12:55:14.028Z,14.18
2019-06-07T12:57:43.310Z,16.00
2019-06-07T13:00:14.097Z,14.87
2019-06-07T13:02:43.170Z,14.85
2019-06-07T13:05:13.394Z,13.85
2019-06-07T13:07:42.022Z,15.85
2019-06-07T13:10:11.083Z,15.55
2019-06-07T13:12:39.736Z,14.38
2019-06-07T13:15:09.362Z,16.30
2019-06-07T13:17:38.337Z,15.00
2019-06-07T13:20:08.014Z,14.43
2019-06-07T13:22:37.314Z,15.93
2019-06-07T13:25:07.852Z,15.72
2019-06-07T13:27:36.508Z,17.98
2019-06-07T13:30:10.421Z,14.68
2019-06-07T13:32:39.150Z,15.58
2019-06-07T13:35:08.319Z,15.05
2019-06-07T13:37:36.953Z,15.50
2019-06-07T13:40:09.081Z,15.63
2019-06-07T13:42:37.925Z,15.38
2019-06-07T13:45:08.880Z,16.12
2019-06-07T13:47:37.574Z,15.10
2019-06-07T13:50:07.579Z,14.07
2019-06-07T13:52:37.480Z,13.95
2019-06-07T13:55:07.049Z,13.38
2019-06-07T13:57:36.117Z,15.32
2019-06-07T14:00:12.411Z,13.62
2019-06-07T14:02:41.162Z,14.25
2019-06-07T14:05:10.377Z,14.30
2019-06-07T14:07:38.924Z,14.55
2019-06-07T14:10:11.522Z,15.93
2019-06-07T14:12:40.659Z,16.82
2019-06-07T14:15:10.080Z,15.35
2019-06-07T14:17:39.027Z,14.75
2019-06-07T14:20:09.661Z,13.40
2019-06-07T14:22:39.018Z,13.28
2019-06-07T14:25:09.885Z,12.88
2019-06-07T14:27:38.507Z,14.75
2019-06-07T14:30:12.162Z,14.47
2019-06-07T14:32:40.814Z,16.62
2019-06-07T14:35:11.236Z,15.20
2019-06-07T14:37:39.854Z,14.90
2019-06-07T14:40:10.073Z,13.98
2019-06-07T14:42:38.825Z,15.63
2019-06-07T14:45:08.765Z,13.32
2019-06-07T14:47:37.322Z,12.98
2019-06-07T14:50:12.374Z,12.55
2019-06-07T14:52:40.955Z,13.08
2019-06-07T14:55:10.486Z,14.07
2019-06-07T14:57:39.404Z,13.43
2019-06-07T15:00:13.204Z,12.88
2019-06-07T15:02:41.821Z,12.55
2019-06-07T15:05:11.372Z,14.80
2019-06-07T15:07:40.767Z,14.90
2019-06-07T15:10:10.615Z,14.20
2019-06-07T15:12:39.941Z,15.58
2019-06-07T15:15:10.613Z,16.48
2019-06-07T15:17:39.445Z,13.72
2019-06-07T15:20:09.580Z,15.35
2019-06-07T15:22:38.905Z,15.90
2019-06-07T15:25:08.592Z,14.18
2019-06-07T15:27:37.673Z,16.30
2019-06-07T15:30:11.557Z,13.40
2019-06-07T15:32:40.521Z,15.23
2019-06-07T15:35:09.651Z,16.32
2019-06-07T15:37:39.299Z,14.23
2019-06-07T15:40:09.085Z,12.75
2019-06-07T15:42:51.332Z,13.45
2019-06-07T15:45:09.915Z,14.40
2019-06-07T15:47:40.372Z,14.93
2019-06-07T15:50:09.813Z,13.05
2019-06-07T15:52:40.489Z,12.93
2019-06-07T15:55:10.425Z,14.25
2019-06-07T15:57:39.716Z,13.90
2019-06-07T16:00:14.117Z,12.75
2019-06-07T16:02:42.825Z,12.78
2019-06-07T16:05:11.724Z,12.60
2019-06-07T16:07:40.745Z,13.70
2019-06-07T16:10:10.894Z,13.98
2019-06-07T16:12:40.788Z,14.25
2019-06-07T16:15:11.764Z,14.15
2019-06-07T16:17:42.017Z,11.85
2019-06-07T16:20:11.049Z,13.90
2019-06-07T16:22:39.834Z,13.75
2019-06-07T16:25:09.511Z,13.80
2019-06-07T16:27:38.692Z,14.30
2019-06-07T16:30:09.555Z,13.32
2019-06-07T16:32:39.352Z,14.85
2019-06-07T16:35:09.553Z,15.78
2019-06-07T16:37:40.721Z,13.65
2019-06-07T16:40:12.465Z,13.00
2019-06-07T16:42:42.751Z,14.60
2019-06-07T16:45:12.425Z,15.55
2019-06-07T16:47:43.745Z,16.95
2019-06-07T16:50:13.308Z,13.25
2019-06-07T16:52:42.129Z,12.80
2019-06-07T16:55:13.076Z,13.03
2019-06-07T16:57:42.902Z,14.60
2019-06-07T17:00:13.887Z,15.10
2019-06-07T17:02:42.453Z,14.18
2019-06-07T17:05:14.422Z,14.98
2019-06-07T17:07:44.679Z,13.55
2019-06-07T17:10:14.483Z,15.75
2019-06-07T17:12:44.676Z,16.30
2019-06-07T17:15:15.806Z,14.07
2019-06-07T17:17:45.338Z,14.85
2019-06-07T17:20:14.629Z,13.25
2019-06-07T17:22:43.993Z,13.75
2019-06-07T17:25:14.503Z,14.23
2019-06-07T17:27:43.902Z,12.82
2019-06-07T17:30:13.999Z,13.70
2019-06-07T17:32:50.635Z,13.35
2019-06-07T17:35:13.769Z,13.05
2019-06-07T17:37:44.289Z,12.37
2019-06-07T17:40:13.418Z,12.63
2019-06-07T17:42:42.749Z,12.07
2019-06-07T17:45:32.351Z,11.00
2019-06-07T17:48:00.907Z,11.18
2019-06-07T17:50:29.515Z,12.75
2019-06-07T17:52:58.138Z,14.47
2019-06-07T17:55:26.823Z,17.92
2019-06-07T17:57:55.382Z,15.93
2019-06-07T18:00:45.062Z,15.88
2019-06-07T18:03:15.153Z,16.07
2019-06-07T18:05:45.127Z,16.48
2019-06-07T18:08:14.563Z,17.73
2019-06-07T18:10:47.836Z,15.65
2019-06-07T18:13:16.525Z,15.93
2019-06-07T18:15:51.722Z,15.50
2019-06-07T18:18:17.232Z,16.45
2019-06-07T18:20:47.217Z,16.75
2019-06-07T18:23:16.194Z,16.70
2019-06-07T18:25:46.557Z,16.62
2019-06-07T18:28:15.175Z,16.32
2019-06-07T18:30:43.797Z,15.98
2019-06-07T18:33:12.514Z,16.65
2019-06-07T18:35:41.172Z,15.78
2019-06-07T18:38:10.907Z,15.32
2019-06-07T18:40:40.639Z,14.15
2019-06-07T18:43:09.252Z,16.07
2019-06-07T18:45:37.838Z,14.55
2019-06-07T18:48:06.905Z,17.48
2019-06-07T18:50:36.410Z,15.72
2019-06-07T18:53:05.495Z,15.53
2019-06-07T18:55:34.007Z,16.42
2019-06-07T18:58:02.624Z,15.32
2019-06-07T19:00:32.054Z,16.40
2019-06-07T19:03:00.666Z,15.70
2019-06-07T19:05:29.351Z,14.40
2019-06-07T19:07:59.856Z,15.50
2019-06-07T19:10:28.436Z,14.28
2019-06-07T19:12:57.430Z,17.77
2019-06-07T19:15:27.348Z,17.23
2019-06-07T19:17:56.243Z,16.20
2019-06-07T19:20:25.664Z,16.00
2019-06-07T19:22:54.575Z,17.73
2019-06-07T19:25:23.186Z,17.65
2019-06-07T19:27:52.682Z,18.17
2019-06-07T19:30:22.822Z,16.97
2019-06-07T19:32:52.973Z,16.42
2019-06-07T19:35:22.239Z,15.45
2019-06-07T19:37:51.791Z,15.98
2019-06-07T19:40:21.573Z,15.43
2019-06-07T19:42:50.229Z,17.05
2019-06-07T19:45:34.735Z,15.83
2019-06-07T19:47:49.966Z,14.95
2019-06-07T19:50:20.040Z,14.95
2019-06-07T19:52:50.030Z,17.00
2019-06-07T19:55:19.191Z,17.07
2019-06-07T19:57:50.055Z,16.20
2019-06-07T20:00:18.752Z,16.60
2019-06-07T20:02:47.290Z,15.68
2019-06-07T20:05:16.699Z,16.17
2019-06-07T20:07:45.315Z,15.28
2019-06-07T20:10:15.628Z,16.80
2019-06-07T20:12:44.278Z,17.02
2019-06-07T20:15:27.846Z,16.12
2019-06-07T20:17:43.935Z,17.17
2019-06-07T20:20:14.341Z,18.23
2019-06-07T20:22:42.992Z,18.20
2019-06-07T20:25:12.304Z,19.23
2019-06-07T20:27:41.014Z,19.40
2019-06-07T20:30:11.915Z,18.25
2019-06-07T20:32:40.517Z,17.85
2019-06-07T20:35:09.836Z,18.35
2019-06-07T20:37:38.437Z,17.95
2019-06-07T20:40:22.775Z,17.92
2019-06-07T20:42:39.415Z,17.98
2019-06-07T20:45:09.283Z,18.82
2019-06-07T20:47:37.900Z,18.15
2019-06-07T20:50:08.691Z,18.57
2019-06-07T20:52:37.698Z,19.52
2019-06-07T20:55:09.123Z,18.55
2019-06-07T20:57:38.143Z,17.30
2019-06-07T21:00:16.344Z,18.02
2019-06-07T21:02:39.636Z,18.40
2019-06-07T21:05:09.812Z,18.50
2019-06-07T21:07:38.824Z,17.23
2019-06-07T21:10:14.572Z,16.85
2019-06-07T21:12:46.077Z,17.32
2019-06-07T21:15:15.136Z,17.17
2019-06-07T21:17:43.766Z,17.25
2019-06-07T21:20:14.587Z,16.57
2019-06-07T21:22:43.291Z,17.35
2019-06-07T21:25:12.467Z,17.05
2019-06-07T21:27:41.104Z,16.87
2019-06-07T21:30:11.559Z,16.00
2019-06-07T21:32:40.794Z,16.10
2019-06-07T21:35:10.529Z,17.92
2019-06-07T21:37:39.149Z,17.95
2019-06-07T21:40:08.428Z,16.95
2019-06-07T21:42:37.445Z,18.17
2019-06-07T21:45:09.834Z,17.95
2019-06-07T21:47:39.056Z,17.15
2019-06-07T21:50:08.837Z,18.07
2019-06-07T21:52:37.890Z,17.10
2019-06-07T21:55:09.080Z,16.93
2019-06-07T21:57:39.693Z,16.20
2019-06-07T22:00:13.504Z,16.95
2019-06-07T22:02:42.614Z,16.32
2019-06-07T22:05:11.872Z,16.87
2019-06-07T22:07:40.536Z,16.62
2019-06-07T22:10:10.100Z,16.37
2019-06-07T22:12:38.767Z,17.50
2019-06-07T22:15:24.205Z,17.45
2019-06-07T22:17:38.817Z,17.15
2019-06-07T22:20:08.649Z,17.37
2019-06-07T22:22:37.627Z,16.48
2019-06-07T22:25:09.019Z,17.30
2019-06-07T22:27:38.051Z,17.20
2019-06-07T22:30:08.807Z,15.95
2019-06-07T22:32:39.230Z,16.48
2019-06-07T22:35:08.970Z,17.12
2019-06-07T22:37:37.920Z,15.55
2019-06-07T22:40:08.657Z,16.48
2019-06-07T22:42:38.206Z,15.08
2019-06-07T22:45:08.147Z,15.95
2019-06-07T22:47:36.970Z,16.05
2019-06-07T22:50:12.642Z,18.42
2019-06-07T22:52:41.662Z,15.95
2019-06-07T22:55:12.103Z,15.40
2019-06-07T22:57:54.342Z,15.58
2019-06-07T23:00:23.776Z,16.77
2019-06-07T23:02:52.567Z,15.63
2019-06-07T23:05:23.955Z,15.85
2019-06-07T23:07:52.515Z,15.90
2019-06-07T23:10:21.119Z,15.68
2019-06-07T23:12:49.735Z,16.30
2019-06-07T23:15:20.754Z,16.67
2019-06-07T23:17:49.461Z,14.40
2019-06-07T23:20:20.025Z,14.95
2019-06-07T23:22:49.082Z,15.98
2019-06-07T23:25:21.866Z,16.85
2019-06-07T23:27:48.102Z,15.68
2019-06-07T23:30:18.605Z,16.20
2019-06-07T23:32:47.483Z,15.03
2019-06-07T23:35:17.317Z,15.32
2019-06-07T23:37:46.310Z,16.50
2019-06-07T23:40:15.690Z,16.30
2019-06-07T23:42:44.297Z,15.53
2019-06-07T23:45:13.835Z,15.75
2019-06-07T23:47:42.677Z,16.37
2019-06-07T23:50:13.641Z,15.50
2019-06-07T23:52:42.433Z,16.42
2019-06-07T23:55:11.908Z,16.05
2019-06-07T23:57:40.699Z,15.72
